sensor_id;sensor_type;location;lat;lon;timestamp;temperature;humidity
10583;DHT22;33679;51.218;6.786;2023-10-09T00:00:17;19.20;99.90
10583;DHT22;33679;51.218;6.786;2023-10-09T00:03:08;19.10;99.90
10583;DHT22;33679;51.218;6.786;2023-10-09T00:05:40;19.20;99.90
10583;DHT22;33679;51.218;6.786;2023-10-09T00:08:18;19.20;99.90
10583;DHT22;33679;51.218;6.786;2023-10-09T00:10:53;19.10;99.90
10583;DHT22;33679;51.218;6.786;2023-10-09T00:13:26;19.10;99.90
10583;DHT22;33679;51.218;6.786;2023-10-09T00:16:05;19.20;99.90
10583;DHT22;33679;51.218;6.786;2023-10-09T00:18:49;19.10;99.90
10583;DHT22;33679;51.218;6.786;2023-10-09T00:21:24;19.10;99.90
10583;DHT22;33679;51.218;6.786;2023-10-09T00:23:59;19.10;99.90
10583;DHT22;33679;51.218;6.786;2023-10-09T00:26:37;19.10;99.90
10583;DHT22;33679;51.218;6.786;2023-10-09T00:29:15;19.10;99.90
10583;DHT22;33679;51.218;6.786;2023-10-09T00:31:52;19.00;99.90
10583;DHT22;33679;51.218;6.786;2023-10-09T00:34:35;19.00;99.90
10583;DHT22;33679;51.218;6.786;2023-10-09T00:37:10;19.10;99.90
10583;DHT22;33679;51.218;6.786;2023-10-09T00:39:47;19.10;99.90
10583;DHT22;33679;51.218;6.786;2023-10-09T00:42:23;19.00;99.90
10583;DHT22;33679;51.218;6.786;2023-10-09T00:45:00;19.00;99.90
10583;DHT22;33679;51.218;6.786;2023-10-09T00:47:36;19.00;99.90
10583;DHT22;33679;51.218;6.786;2023-10-09T00:50:13;19.00;99.90
10583;DHT22;33679;51.218;6.786;2023-10-09T00:52:54;19.00;99.90
10583;DHT22;33679;51.218;6.786;2023-10-09T00:55:33;19.00;99.90
10583;DHT22;33679;51.218;6.786;2023-10-09T00:58:16;19.00;99.90
10583;DHT22;33679;51.218;6.786;2023-10-09T01:00:54;19.00;99.90
10583;DHT22;33679;51.218;6.786;2023-10-09T01:03:27;19.00;99.90
10583;DHT22;33679;51.218;6.786;2023-10-09T01:06:06;19.00;99.90
10583;DHT22;33679;51.218;6.786;2023-10-09T01:08:48;19.00;99.90
10583;DHT22;33679;51.218;6.786;2023-10-09T01:11:38;19.00;99.90
10583;DHT22;33679;51.218;6.786;2023-10-09T01:14:19;19.00;99.90
10583;DHT22;33679;51.218;6.786;2023-10-09T01:16:52;19.00;99.90
10583;DHT22;33679;51.218;6.786;2023-10-09T01:19:27;19.00;99.90
10583;DHT22;33679;51.218;6.786;2023-10-09T01:22:03;19.00;99.90
10583;DHT22;33679;51.218;6.786;2023-10-09T01:24:45;19.10;99.90
10583;DHT22;33679;51.218;6.786;2023-10-09T01:27:21;19.10;99.90
10583;DHT22;33679;51.218;6.786;2023-10-09T01:29:56;19.10;99.90
10583;DHT22;33679;51.218;6.786;2023-10-09T01:32:30;19.00;99.90
10583;DHT22;33679;51.218;6.786;2023-10-09T01:35:05;19.00;99.90
10583;DHT22;33679;51.218;6.786;2023-10-09T01:37:45;19.10;99.90
10583;DHT22;33679;51.218;6.786;2023-10-09T01:40:23;19.00;99.90
10583;DHT22;33679;51.218;6.786;2023-10-09T01:43:07;19.00;99.90
10583;DHT22;33679;51.218;6.786;2023-10-09T01:45:41;19.00;99.90
10583;DHT22;33679;51.218;6.786;2023-10-09T01:48:17;19.00;99.90
10583;DHT22;33679;51.218;6.786;2023-10-09T01:50:57;19.00;99.90
10583;DHT22;33679;51.218;6.786;2023-10-09T01:53:31;19.00;99.90
10583;DHT22;33679;51.218;6.786;2023-10-09T01:56:15;19.10;99.90
10583;DHT22;33679;51.218;6.786;2023-10-09T01:58:48;19.10;99.90
10583;DHT22;33679;51.218;6.786;2023-10-09T02:01:21;19.10;99.90
10583;DHT22;33679;51.218;6.786;2023-10-09T02:03:55;19.10;99.90
10583;DHT22;33679;51.218;6.786;2023-10-09T02:06:36;19.10;99.90
10583;DHT22;33679;51.218;6.786;2023-10-09T02:09:08;19.10;99.90
10583;DHT22;33679;51.218;6.786;2023-10-09T02:11:52;19.10;99.90
10583;DHT22;33679;51.218;6.786;2023-10-09T02:14:24;19.10;99.90
10583;DHT22;33679;51.218;6.786;2023-10-09T02:16:59;19.10;99.90
10583;DHT22;33679;51.218;6.786;2023-10-09T02:19:39;19.10;99.90
10583;DHT22;33679;51.218;6.786;2023-10-09T02:22:13;19.10;99.90
10583;DHT22;33679;51.218;6.786;2023-10-09T02:24:46;19.10;99.90
10583;DHT22;33679;51.218;6.786;2023-10-09T02:27:30;19.10;99.90
10583;DHT22;33679;51.218;6.786;2023-10-09T02:30:24;19.10;99.90
10583;DHT22;33679;51.218;6.786;2023-10-09T02:32:59;19.10;99.90
10583;DHT22;33679;51.218;6.786;2023-10-09T02:35:38;19.10;99.90
10583;DHT22;33679;51.218;6.786;2023-10-09T02:38:13;19.10;99.90
10583;DHT22;33679;51.218;6.786;2023-10-09T02:40:49;19.10;99.90
10583;DHT22;33679;51.218;6.786;2023-10-09T02:43:52;19.10;99.90
10583;DHT22;33679;51.218;6.786;2023-10-09T02:46:26;19.10;99.90
10583;DHT22;33679;51.218;6.786;2023-10-09T02:49:03;19.10;99.90
10583;DHT22;33679;51.218;6.786;2023-10-09T02:51:41;19.10;99.90
10583;DHT22;33679;51.218;6.786;2023-10-09T02:54:21;19.10;99.90
10583;DHT22;33679;51.218;6.786;2023-10-09T02:57:07;19.10;99.90
10583;DHT22;33679;51.218;6.786;2023-10-09T02:59:48;19.10;99.90
10583;DHT22;33679;51.218;6.786;2023-10-09T03:02:22;19.10;99.90
10583;DHT22;33679;51.218;6.786;2023-10-09T03:04:55;19.10;99.90
10583;DHT22;33679;51.218;6.786;2023-10-09T03:07:27;19.10;99.90
10583;DHT22;33679;51.218;6.786;2023-10-09T03:10:00;19.20;99.90
10583;DHT22;33679;51.218;6.786;2023-10-09T03:12:33;19.10;99.90
10583;DHT22;33679;51.218;6.786;2023-10-09T03:15:08;19.20;99.90
10583;DHT22;33679;51.218;6.786;2023-10-09T03:17:42;19.20;99.90
10583;DHT22;33679;51.218;6.786;2023-10-09T03:20:15;19.10;99.90
10583;DHT22;33679;51.218;6.786;2023-10-09T03:22:50;19.10;99.90
10583;DHT22;33679;51.218;6.786;2023-10-09T03:25:25;19.10;99.90
10583;DHT22;33679;51.218;6.786;2023-10-09T03:27:59;19.20;99.90
10583;DHT22;33679;51.218;6.786;2023-10-09T03:30:32;19.20;99.90
10583;DHT22;33679;51.218;6.786;2023-10-09T03:33:05;19.20;99.90
10583;DHT22;33679;51.218;6.786;2023-10-09T03:35:37;19.10;99.90
10583;DHT22;33679;51.218;6.786;2023-10-09T03:38:10;19.10;99.90
10583;DHT22;33679;51.218;6.786;2023-10-09T03:40:47;19.10;99.90
10583;DHT22;33679;51.218;6.786;2023-10-09T03:43:20;19.20;99.90
10583;DHT22;33679;51.218;6.786;2023-10-09T03:45:53;19.20;99.90
10583;DHT22;33679;51.218;6.786;2023-10-09T03:48:28;19.20;99.90
10583;DHT22;33679;51.218;6.786;2023-10-09T03:51:03;19.20;99.90
10583;DHT22;33679;51.218;6.786;2023-10-09T03:53:43;19.20;99.90
10583;DHT22;33679;51.218;6.786;2023-10-09T03:56:15;19.20;99.90
10583;DHT22;33679;51.218;6.786;2023-10-09T03:58:49;19.20;99.90
10583;DHT22;33679;51.218;6.786;2023-10-09T04:01:23;19.20;99.90
10583;DHT22;33679;51.218;6.786;2023-10-09T04:04:00;19.20;99.90
10583;DHT22;33679;51.218;6.786;2023-10-09T04:06:33;19.20;99.90
10583;DHT22;33679;51.218;6.786;2023-10-09T04:09:06;19.20;99.90
10583;DHT22;33679;51.218;6.786;2023-10-09T04:11:58;19.30;99.90
10583;DHT22;33679;51.218;6.786;2023-10-09T04:14:44;19.20;99.90
10583;DHT22;33679;51.218;6.786;2023-10-09T04:17:22;19.30;99.90
10583;DHT22;33679;51.218;6.786;2023-10-09T04:20:11;19.30;99.90
10583;DHT22;33679;51.218;6.786;2023-10-09T04:23:01;19.30;99.90
10583;DHT22;33679;51.218;6.786;2023-10-09T04:25:36;19.30;99.90
10583;DHT22;33679;51.218;6.786;2023-10-09T04:28:13;19.30;99.90
10583;DHT22;33679;51.218;6.786;2023-10-09T04:30:50;19.30;99.90
10583;DHT22;33679;51.218;6.786;2023-10-09T04:33:27;19.30;99.90
10583;DHT22;33679;51.218;6.786;2023-10-09T04:36:11;19.30;99.90
10583;DHT22;33679;51.218;6.786;2023-10-09T04:38:59;19.30;99.90
10583;DHT22;33679;51.218;6.786;2023-10-09T04:41:57;19.30;99.90
10583;DHT22;33679;51.218;6.786;2023-10-09T04:44:50;19.30;99.90
10583;DHT22;33679;51.218;6.786;2023-10-09T04:47:39;19.30;99.90
10583;DHT22;33679;51.218;6.786;2023-10-09T04:50:23;19.30;99.90
10583;DHT22;33679;51.218;6.786;2023-10-09T04:53:16;19.30;99.90
10583;DHT22;33679;51.218;6.786;2023-10-09T04:55:54;19.30;99.90
10583;DHT22;33679;51.218;6.786;2023-10-09T04:58:30;19.30;99.90
10583;DHT22;33679;51.218;6.786;2023-10-09T05:01:10;19.40;99.90
10583;DHT22;33679;51.218;6.786;2023-10-09T05:04:06;19.40;99.90
10583;DHT22;33679;51.218;6.786;2023-10-09T05:07:00;19.40;99.90
10583;DHT22;33679;51.218;6.786;2023-10-09T05:09:59;19.40;99.90
10583;DHT22;33679;51.218;6.786;2023-10-09T05:12:47;19.40;99.90
10583;DHT22;33679;51.218;6.786;2023-10-09T05:15:29;19.40;99.90
10583;DHT22;33679;51.218;6.786;2023-10-09T05:18:05;19.40;99.90
10583;DHT22;33679;51.218;6.786;2023-10-09T05:20:40;19.40;99.90
10583;DHT22;33679;51.218;6.786;2023-10-09T05:23:47;19.50;99.90
10583;DHT22;33679;51.218;6.786;2023-10-09T05:26:20;19.40;99.90
10583;DHT22;33679;51.218;6.786;2023-10-09T05:29:08;19.40;99.90
10583;DHT22;33679;51.218;6.786;2023-10-09T05:31:52;19.40;99.90
10583;DHT22;33679;51.218;6.786;2023-10-09T05:34:35;19.40;99.90
10583;DHT22;33679;51.218;6.786;2023-10-09T05:37:28;19.40;99.90
10583;DHT22;33679;51.218;6.786;2023-10-09T05:40:05;19.40;99.90
10583;DHT22;33679;51.218;6.786;2023-10-09T05:42:54;19.40;99.90
10583;DHT22;33679;51.218;6.786;2023-10-09T05:45:30;19.50;99.90
10583;DHT22;33679;51.218;6.786;2023-10-09T05:51:53;19.50;99.90
10583;DHT22;33679;51.218;6.786;2023-10-09T05:54:45;19.60;99.90
10583;DHT22;33679;51.218;6.786;2023-10-09T05:57:46;19.60;99.90
10583;DHT22;33679;51.218;6.786;2023-10-09T06:00:32;19.60;99.90
10583;DHT22;33679;51.218;6.786;2023-10-09T06:03:22;19.60;99.90
10583;DHT22;33679;51.218;6.786;2023-10-09T06:06:16;19.70;99.90
10583;DHT22;33679;51.218;6.786;2023-10-09T06:09:06;19.70;99.90
10583;DHT22;33679;51.218;6.786;2023-10-09T06:11:57;19.80;99.90
10583;DHT22;33679;51.218;6.786;2023-10-09T06:14:43;19.80;99.90
10583;DHT22;33679;51.218;6.786;2023-10-09T06:17:28;19.80;99.90
10583;DHT22;33679;51.218;6.786;2023-10-09T06:20:15;19.80;99.90
10583;DHT22;33679;51.218;6.786;2023-10-09T06:23:01;19.80;99.90
10583;DHT22;33679;51.218;6.786;2023-10-09T06:25:49;19.80;99.90
10583;DHT22;33679;51.218;6.786;2023-10-09T06:28:22;19.80;99.90
10583;DHT22;33679;51.218;6.786;2023-10-09T06:31:03;19.80;99.90
10583;DHT22;33679;51.218;6.786;2023-10-09T06:34:01;19.80;99.90
10583;DHT22;33679;51.218;6.786;2023-10-09T06:36:46;19.80;99.90
10583;DHT22;33679;51.218;6.786;2023-10-09T06:39:24;19.80;99.90
10583;DHT22;33679;51.218;6.786;2023-10-09T06:42:17;19.80;99.90
10583;DHT22;33679;51.218;6.786;2023-10-09T06:45:06;19.90;99.90
10583;DHT22;33679;51.218;6.786;2023-10-09T06:47:40;20.00;99.90
10583;DHT22;33679;51.218;6.786;2023-10-09T06:50:12;20.00;99.90
10583;DHT22;33679;51.218;6.786;2023-10-09T06:52:55;20.00;99.90
10583;DHT22;33679;51.218;6.786;2023-10-09T06:55:56;20.00;99.90
10583;DHT22;33679;51.218;6.786;2023-10-09T06:58:37;20.00;99.90
10583;DHT22;33679;51.218;6.786;2023-10-09T07:01:16;20.00;99.90
10583;DHT22;33679;51.218;6.786;2023-10-09T07:04:13;20.10;99.90
10583;DHT22;33679;51.218;6.786;2023-10-09T07:07:12;20.10;99.90
10583;DHT22;33679;51.218;6.786;2023-10-09T07:09:47;20.10;99.90
10583;DHT22;33679;51.218;6.786;2023-10-09T07:12:33;20.10;99.90
10583;DHT22;33679;51.218;6.786;2023-10-09T07:15:14;20.10;99.90
10583;DHT22;33679;51.218;6.786;2023-10-09T07:18:07;20.10;99.90
10583;DHT22;33679;51.218;6.786;2023-10-09T07:20:54;20.10;99.90
10583;DHT22;33679;51.218;6.786;2023-10-09T07:23:41;20.10;99.90
10583;DHT22;33679;51.218;6.786;2023-10-09T07:26:19;20.20;99.90
10583;DHT22;33679;51.218;6.786;2023-10-09T07:29:07;20.30;99.90
10583;DHT22;33679;51.218;6.786;2023-10-09T07:31:53;20.30;99.90
10583;DHT22;33679;51.218;6.786;2023-10-09T07:34:29;20.40;99.90
10583;DHT22;33679;51.218;6.786;2023-10-09T07:37:21;20.50;99.90
10583;DHT22;33679;51.218;6.786;2023-10-09T07:39:54;20.50;99.90
10583;DHT22;33679;51.218;6.786;2023-10-09T07:42:29;20.60;99.90
10583;DHT22;33679;51.218;6.786;2023-10-09T07:45:15;20.60;99.90
10583;DHT22;33679;51.218;6.786;2023-10-09T07:48:06;20.60;99.90
10583;DHT22;33679;51.218;6.786;2023-10-09T07:50:45;20.70;99.90
10583;DHT22;33679;51.218;6.786;2023-10-09T07:53:20;20.70;99.90
10583;DHT22;33679;51.218;6.786;2023-10-09T07:55:57;20.70;99.90
10583;DHT22;33679;51.218;6.786;2023-10-09T07:58:38;20.70;99.90
10583;DHT22;33679;51.218;6.786;2023-10-09T08:01:17;20.80;99.90
10583;DHT22;33679;51.218;6.786;2023-10-09T08:04:07;20.80;99.90
10583;DHT22;33679;51.218;6.786;2023-10-09T08:06:42;20.80;99.90
10583;DHT22;33679;51.218;6.786;2023-10-09T08:09:15;20.90;99.90
10583;DHT22;33679;51.218;6.786;2023-10-09T08:11:59;20.80;99.90
10583;DHT22;33679;51.218;6.786;2023-10-09T08:15:07;20.90;99.90
10583;DHT22;33679;51.218;6.786;2023-10-09T08:18:00;20.90;99.90
10583;DHT22;33679;51.218;6.786;2023-10-09T08:20:42;20.90;99.90
10583;DHT22;33679;51.218;6.786;2023-10-09T08:23:43;20.90;99.90
10583;DHT22;33679;51.218;6.786;2023-10-09T08:26:20;20.90;99.90
10583;DHT22;33679;51.218;6.786;2023-10-09T08:29:18;20.90;99.90
10583;DHT22;33679;51.218;6.786;2023-10-09T08:31:50;20.90;99.90
10583;DHT22;33679;51.218;6.786;2023-10-09T08:34:31;21.00;99.90
10583;DHT22;33679;51.218;6.786;2023-10-09T08:37:20;21.00;99.90
10583;DHT22;33679;51.218;6.786;2023-10-09T08:39:56;21.10;99.90
10583;DHT22;33679;51.218;6.786;2023-10-09T08:42:28;21.10;99.90
10583;DHT22;33679;51.218;6.786;2023-10-09T08:45:04;21.30;99.90
10583;DHT22;33679;51.218;6.786;2023-10-09T08:47:36;21.30;99.90
10583;DHT22;33679;51.218;6.786;2023-10-09T08:50:09;21.40;99.90
10583;DHT22;33679;51.218;6.786;2023-10-09T08:52:45;21.40;99.90
10583;DHT22;33679;51.218;6.786;2023-10-09T08:55:19;21.40;99.90
10583;DHT22;33679;51.218;6.786;2023-10-09T08:57:52;21.40;99.90
10583;DHT22;33679;51.218;6.786;2023-10-09T09:00:26;21.40;99.90
10583;DHT22;33679;51.218;6.786;2023-10-09T09:03:05;21.50;99.90
10583;DHT22;33679;51.218;6.786;2023-10-09T09:05:38;21.50;99.90
10583;DHT22;33679;51.218;6.786;2023-10-09T09:08:23;21.50;99.90
10583;DHT22;33679;51.218;6.786;2023-10-09T09:11:00;21.50;99.90
10583;DHT22;33679;51.218;6.786;2023-10-09T09:13:44;21.50;99.90
10583;DHT22;33679;51.218;6.786;2023-10-09T09:16:26;21.50;99.90
10583;DHT22;33679;51.218;6.786;2023-10-09T09:19:14;21.50;99.90
10583;DHT22;33679;51.218;6.786;2023-10-09T09:22:03;21.50;99.90
10583;DHT22;33679;51.218;6.786;2023-10-09T09:24:58;21.60;99.90
10583;DHT22;33679;51.218;6.786;2023-10-09T09:27:46;21.70;99.90
10583;DHT22;33679;51.218;6.786;2023-10-09T09:30:24;21.70;99.90
10583;DHT22;33679;51.218;6.786;2023-10-09T09:33:17;21.70;99.90
10583;DHT22;33679;51.218;6.786;2023-10-09T09:35:59;21.70;99.90
10583;DHT22;33679;51.218;6.786;2023-10-09T09:38:34;21.80;99.90
10583;DHT22;33679;51.218;6.786;2023-10-09T09:41:21;21.80;99.90
10583;DHT22;33679;51.218;6.786;2023-10-09T09:43:59;21.90;99.90
10583;DHT22;33679;51.218;6.786;2023-10-09T09:46:32;22.00;99.90
10583;DHT22;33679;51.218;6.786;2023-10-09T09:49:06;22.00;99.90
10583;DHT22;33679;51.218;6.786;2023-10-09T09:51:47;22.10;99.90
10583;DHT22;33679;51.218;6.786;2023-10-09T09:54:20;22.10;99.90
10583;DHT22;33679;51.218;6.786;2023-10-09T09:56:54;22.10;99.90
10583;DHT22;33679;51.218;6.786;2023-10-09T09:59:30;22.10;99.90
10583;DHT22;33679;51.218;6.786;2023-10-09T10:02:07;22.10;99.90
10583;DHT22;33679;51.218;6.786;2023-10-09T10:04:43;22.20;99.90
10583;DHT22;33679;51.218;6.786;2023-10-09T10:07:21;22.20;99.90
10583;DHT22;33679;51.218;6.786;2023-10-09T10:09:55;22.20;99.90
10583;DHT22;33679;51.218;6.786;2023-10-09T10:16:04;22.20;99.90
10583;DHT22;33679;51.218;6.786;2023-10-09T10:19:02;22.20;99.90
10583;DHT22;33679;51.218;6.786;2023-10-09T10:21:53;22.20;99.90
10583;DHT22;33679;51.218;6.786;2023-10-09T10:24:41;22.30;99.90
10583;DHT22;33679;51.218;6.786;2023-10-09T10:27:33;22.30;99.90
10583;DHT22;33679;51.218;6.786;2023-10-09T10:30:29;22.30;99.90
10583;DHT22;33679;51.218;6.786;2023-10-09T10:33:16;22.40;99.90
10583;DHT22;33679;51.218;6.786;2023-10-09T10:35:53;22.40;99.90
10583;DHT22;33679;51.218;6.786;2023-10-09T10:38:28;22.40;99.90
10583;DHT22;33679;51.218;6.786;2023-10-09T10:41:11;22.40;99.90
10583;DHT22;33679;51.218;6.786;2023-10-09T10:43:45;22.50;99.90
10583;DHT22;33679;51.218;6.786;2023-10-09T10:46:25;22.50;99.90
10583;DHT22;33679;51.218;6.786;2023-10-09T10:49:13;22.60;99.90
10583;DHT22;33679;51.218;6.786;2023-10-09T10:51:51;22.60;99.90
10583;DHT22;33679;51.218;6.786;2023-10-09T10:54:32;22.70;99.90
10583;DHT22;33679;51.218;6.786;2023-10-09T10:57:36;22.70;99.90
10583;DHT22;33679;51.218;6.786;2023-10-09T11:00:24;22.70;99.90
10583;DHT22;33679;51.218;6.786;2023-10-09T11:03:18;22.80;99.90
10583;DHT22;33679;51.218;6.786;2023-10-09T11:06:02;22.90;99.90
10583;DHT22;33679;51.218;6.786;2023-10-09T11:08:48;23.00;99.90
10583;DHT22;33679;51.218;6.786;2023-10-09T11:11:26;23.00;99.90
10583;DHT22;33679;51.218;6.786;2023-10-09T11:14:12;23.00;99.90
10583;DHT22;33679;51.218;6.786;2023-10-09T11:16:51;23.10;99.90
10583;DHT22;33679;51.218;6.786;2023-10-09T11:19:29;23.10;99.90
10583;DHT22;33679;51.218;6.786;2023-10-09T11:22:04;23.10;99.90
10583;DHT22;33679;51.218;6.786;2023-10-09T11:24:55;23.10;99.90
10583;DHT22;33679;51.218;6.786;2023-10-09T11:27:42;23.10;99.90
10583;DHT22;33679;51.218;6.786;2023-10-09T11:30:31;23.10;99.90
10583;DHT22;33679;51.218;6.786;2023-10-09T11:33:06;23.10;99.90
10583;DHT22;33679;51.218;6.786;2023-10-09T11:35:55;23.20;99.90
10583;DHT22;33679;51.218;6.786;2023-10-09T11:38:39;23.30;99.90
10583;DHT22;33679;51.218;6.786;2023-10-09T11:41:16;23.30;99.90
10583;DHT22;33679;51.218;6.786;2023-10-09T11:43:56;23.30;99.90
10583;DHT22;33679;51.218;6.786;2023-10-09T11:46:29;23.30;99.90
10583;DHT22;33679;51.218;6.786;2023-10-09T11:49:19;23.40;99.90
10583;DHT22;33679;51.218;6.786;2023-10-09T11:52:15;23.40;99.90
10583;DHT22;33679;51.218;6.786;2023-10-09T11:55:08;23.30;99.90
10583;DHT22;33679;51.218;6.786;2023-10-09T11:57:45;23.30;99.90
10583;DHT22;33679;51.218;6.786;2023-10-09T12:00:21;23.40;99.90
10583;DHT22;33679;51.218;6.786;2023-10-09T12:03:00;23.40;99.90
10583;DHT22;33679;51.218;6.786;2023-10-09T12:05:36;23.50;99.90
10583;DHT22;33679;51.218;6.786;2023-10-09T12:08:13;23.50;99.90
10583;DHT22;33679;51.218;6.786;2023-10-09T12:10:48;23.50;99.90
10583;DHT22;33679;51.218;6.786;2023-10-09T12:13:20;23.50;99.90
10583;DHT22;33679;51.218;6.786;2023-10-09T12:15:53;23.50;99.90
10583;DHT22;33679;51.218;6.786;2023-10-09T12:18:26;23.50;99.90
10583;DHT22;33679;51.218;6.786;2023-10-09T12:20:59;23.50;99.90
10583;DHT22;33679;51.218;6.786;2023-10-09T12:23:35;23.60;99.90
10583;DHT22;33679;51.218;6.786;2023-10-09T12:26:08;23.60;99.90
10583;DHT22;33679;51.218;6.786;2023-10-09T12:28:45;23.70;99.90
10583;DHT22;33679;51.218;6.786;2023-10-09T12:31:20;23.70;99.90
10583;DHT22;33679;51.218;6.786;2023-10-09T12:33:54;23.70;99.90
10583;DHT22;33679;51.218;6.786;2023-10-09T12:36:29;23.70;99.90
10583;DHT22;33679;51.218;6.786;2023-10-09T12:39:08;23.70;99.90
10583;DHT22;33679;51.218;6.786;2023-10-09T12:41:50;23.70;99.90
10583;DHT22;33679;51.218;6.786;2023-10-09T12:44:24;23.70;99.90
10583;DHT22;33679;51.218;6.786;2023-10-09T12:46:58;23.80;99.90
10583;DHT22;33679;51.218;6.786;2023-10-09T12:49:35;23.70;99.90
10583;DHT22;33679;51.218;6.786;2023-10-09T12:52:09;23.70;99.90
10583;DHT22;33679;51.218;6.786;2023-10-09T12:54:52;23.70;99.90
10583;DHT22;33679;51.218;6.786;2023-10-09T12:57:28;23.80;99.90
10583;DHT22;33679;51.218;6.786;2023-10-09T13:00:01;23.90;99.90
10583;DHT22;33679;51.218;6.786;2023-10-09T13:02:41;23.90;99.90
10583;DHT22;33679;51.218;6.786;2023-10-09T13:05:15;24.00;99.90
10583;DHT22;33679;51.218;6.786;2023-10-09T13:07:57;24.00;99.90
10583;DHT22;33679;51.218;6.786;2023-10-09T13:10:32;24.00;99.90
10583;DHT22;33679;51.218;6.786;2023-10-09T13:13:10;24.00;99.90
10583;DHT22;33679;51.218;6.786;2023-10-09T13:15:44;24.00;99.90
10583;DHT22;33679;51.218;6.786;2023-10-09T13:18:20;24.00;99.90
10583;DHT22;33679;51.218;6.786;2023-10-09T13:20:54;23.90;99.90
10583;DHT22;33679;51.218;6.786;2023-10-09T13:23:26;23.90;99.90
10583;DHT22;33679;51.218;6.786;2023-10-09T13:26:10;23.90;99.90
10583;DHT22;33679;51.218;6.786;2023-10-09T13:28:52;23.90;99.90
10583;DHT22;33679;51.218;6.786;2023-10-09T13:31:26;23.90;99.90
10583;DHT22;33679;51.218;6.786;2023-10-09T13:34:01;23.80;99.90
10583;DHT22;33679;51.218;6.786;2023-10-09T13:36:36;23.80;99.90
10583;DHT22;33679;51.218;6.786;2023-10-09T13:39:08;23.80;99.90
10583;DHT22;33679;51.218;6.786;2023-10-09T13:41:56;23.80;99.90
10583;DHT22;33679;51.218;6.786;2023-10-09T13:44:31;23.70;99.90
10583;DHT22;33679;51.218;6.786;2023-10-09T13:47:05;23.70;99.90
10583;DHT22;33679;51.218;6.786;2023-10-09T13:49:39;23.60;99.90
10583;DHT22;33679;51.218;6.786;2023-10-09T13:52:15;23.60;99.90
10583;DHT22;33679;51.218;6.786;2023-10-09T13:54:49;23.60;99.90
10583;DHT22;33679;51.218;6.786;2023-10-09T13:57:27;23.60;99.90
10583;DHT22;33679;51.218;6.786;2023-10-09T14:00:04;23.60;99.90
10583;DHT22;33679;51.218;6.786;2023-10-09T14:02:44;23.60;99.90
10583;DHT22;33679;51.218;6.786;2023-10-09T14:05:17;23.60;99.90
10583;DHT22;33679;51.218;6.786;2023-10-09T14:07:51;23.50;99.90
10583;DHT22;33679;51.218;6.786;2023-10-09T14:10:25;23.50;99.90
10583;DHT22;33679;51.218;6.786;2023-10-09T14:13:01;23.50;99.90
10583;DHT22;33679;51.218;6.786;2023-10-09T14:15:45;23.50;99.90
10583;DHT22;33679;51.218;6.786;2023-10-09T14:18:18;23.50;99.90
10583;DHT22;33679;51.218;6.786;2023-10-09T14:20:53;23.60;99.90
10583;DHT22;33679;51.218;6.786;2023-10-09T14:23:27;23.70;99.90
10583;DHT22;33679;51.218;6.786;2023-10-09T14:26:03;23.60;99.90
10583;DHT22;33679;51.218;6.786;2023-10-09T14:28:37;23.70;99.90
10583;DHT22;33679;51.218;6.786;2023-10-09T14:31:11;23.60;99.90
10583;DHT22;33679;51.218;6.786;2023-10-09T14:33:47;23.60;99.90
10583;DHT22;33679;51.218;6.786;2023-10-09T14:36:23;23.60;99.90
10583;DHT22;33679;51.218;6.786;2023-10-09T14:39:00;23.60;99.90
10583;DHT22;33679;51.218;6.786;2023-10-09T14:41:35;23.70;99.90
10583;DHT22;33679;51.218;6.786;2023-10-09T14:44:07;23.60;99.90
10583;DHT22;33679;51.218;6.786;2023-10-09T14:46:49;23.60;99.90
10583;DHT22;33679;51.218;6.786;2023-10-09T14:49:23;23.70;99.90
10583;DHT22;33679;51.218;6.786;2023-10-09T14:51:55;23.70;99.90
10583;DHT22;33679;51.218;6.786;2023-10-09T14:54:30;23.70;99.90
10583;DHT22;33679;51.218;6.786;2023-10-09T14:57:04;23.70;99.90
10583;DHT22;33679;51.218;6.786;2023-10-09T14:59:37;23.80;99.90
10583;DHT22;33679;51.218;6.786;2023-10-09T15:02:12;23.80;99.90
10583;DHT22;33679;51.218;6.786;2023-10-09T15:04:45;23.80;99.90
10583;DHT22;33679;51.218;6.786;2023-10-09T15:07:18;23.80;99.90
10583;DHT22;33679;51.218;6.786;2023-10-09T15:09:51;23.90;99.90
10583;DHT22;33679;51.218;6.786;2023-10-09T15:12:26;23.90;99.90
10583;DHT22;33679;51.218;6.786;2023-10-09T15:15:00;23.90;99.90
10583;DHT22;33679;51.218;6.786;2023-10-09T15:17:37;23.90;99.90
10583;DHT22;33679;51.218;6.786;2023-10-09T15:20:11;23.80;99.90
10583;DHT22;33679;51.218;6.786;2023-10-09T15:22:54;23.80;99.90
10583;DHT22;33679;51.218;6.786;2023-10-09T15:25:27;23.80;99.90
10583;DHT22;33679;51.218;6.786;2023-10-09T15:28:00;23.80;99.90
10583;DHT22;33679;51.218;6.786;2023-10-09T15:30:33;23.80;99.90
10583;DHT22;33679;51.218;6.786;2023-10-09T15:33:07;23.80;99.90
10583;DHT22;33679;51.218;6.786;2023-10-09T15:35:42;23.80;99.90
10583;DHT22;33679;51.218;6.786;2023-10-09T15:38:16;23.70;99.90
10583;DHT22;33679;51.218;6.786;2023-10-09T15:40:50;23.60;99.90
10583;DHT22;33679;51.218;6.786;2023-10-09T15:43:22;23.60;99.90
10583;DHT22;33679;51.218;6.786;2023-10-09T15:45:56;23.60;99.90
10583;DHT22;33679;51.218;6.786;2023-10-09T15:48:31;23.50;99.90
10583;DHT22;33679;51.218;6.786;2023-10-09T15:51:03;23.50;99.90
10583;DHT22;33679;51.218;6.786;2023-10-09T15:53:42;23.40;99.90
10583;DHT22;33679;51.218;6.786;2023-10-09T15:56:15;23.50;99.90
10583;DHT22;33679;51.218;6.786;2023-10-09T15:58:50;23.40;99.90
10583;DHT22;33679;51.218;6.786;2023-10-09T16:01:26;23.40;99.90
10583;DHT22;33679;51.218;6.786;2023-10-09T16:04:01;23.40;99.90
10583;DHT22;33679;51.218;6.786;2023-10-09T16:06:40;23.40;99.90
10583;DHT22;33679;51.218;6.786;2023-10-09T16:09:15;23.40;99.90
10583;DHT22;33679;51.218;6.786;2023-10-09T16:11:56;23.30;99.90
10583;DHT22;33679;51.218;6.786;2023-10-09T16:14:32;23.30;99.90
10583;DHT22;33679;51.218;6.786;2023-10-09T16:17:05;23.30;99.90
10583;DHT22;33679;51.218;6.786;2023-10-09T16:19:44;23.30;99.90
10583;DHT22;33679;51.218;6.786;2023-10-09T16:22:31;23.20;99.90
10583;DHT22;33679;51.218;6.786;2023-10-09T16:25:07;23.20;99.90
10583;DHT22;33679;51.218;6.786;2023-10-09T16:27:44;23.10;99.90
10583;DHT22;33679;51.218;6.786;2023-10-09T16:30:35;23.00;99.90
10583;DHT22;33679;51.218;6.786;2023-10-09T16:33:08;22.90;99.90
10583;DHT22;33679;51.218;6.786;2023-10-09T16:35:42;22.90;99.90
10583;DHT22;33679;51.218;6.786;2023-10-09T16:38:15;22.90;99.90
10583;DHT22;33679;51.218;6.786;2023-10-09T16:40:52;22.90;99.90
10583;DHT22;33679;51.218;6.786;2023-10-09T16:43:32;22.80;99.90
10583;DHT22;33679;51.218;6.786;2023-10-09T16:46:06;22.80;99.90
10583;DHT22;33679;51.218;6.786;2023-10-09T16:48:43;22.80;99.90
10583;DHT22;33679;51.218;6.786;2023-10-09T16:51:22;22.80;99.90
10583;DHT22;33679;51.218;6.786;2023-10-09T16:53:55;22.80;99.90